P52 weather

Cottonwood Airport
Cottonwood, Arizona, United States

Public forecast

Using degrees Fahrenheit for public forecast. Weather courtesy of forecast.io.

Closest aviation weather report (METAR) to Cottonwood Airport

Closest report is Sedona Airport, 14.1 nm (26.1 km) ENE. Retrieved 2020/08/05 04:35 UTC (3 minutes ago):

KSEZ 050435Z AUTO 00000KT 10SM CLR 28/02 A3013 RMK AO2

Closest aviation forecast (TAF) to Cottonwood Airport

Closest forecast is Sedona Airport, 14.1 nm (26.1 km) ENE. Retrieved 2020-08-05 00:30 UTC (4 hours ago):

TAF KSEZ 042328Z 0500/0524 20012G20KT P6SM FEW250 FM050230 VRB05KT P6SM FEW250 FM050600 05009KT P6SM SKC FM051900 20013G23KT P6SM FEW250